Terminal Aerodrome Forecast
Issued by NWS Billings, MT

Home | Current Version | Previous Version | Graphics & Text | Print | Product List | Glossary On
Versions: 1 2 3 4 5 6 7 8 9 10 11 12 13 14 15 16 17 18 19 20 21 22
000
FTUS45 KBYZ 250536
TAFMLS
TAF
KMLS 250536Z 2506/2606 14010KT P6SM SCT200 WS009/16032KT
     FM251200 17008KT P6SM SKC
     FM252000 32009KT P6SM SKC
     FM260200 07005KT P6SM SKC=

USA.gov is the U.S. government's official web portal to all federal, state and local government web resources and services.